sensor_id;sensor_type;location;lat;lon;timestamp;temperature;humidity
19646;DHT22;9971;52.446;13.452;2023-03-18T00:03:52;10.70;92.60
19646;DHT22;9971;52.446;13.452;2023-03-18T00:08:54;10.70;92.90
19646;DHT22;9971;52.446;13.452;2023-03-18T00:13:56;10.70;92.60
19646;DHT22;9971;52.446;13.452;2023-03-18T00:18:58;10.70;92.70
19646;DHT22;9971;52.446;13.452;2023-03-18T00:24:00;10.70;92.70
19646;DHT22;9971;52.446;13.452;2023-03-18T00:29:03;10.70;92.50
19646;DHT22;9971;52.446;13.452;2023-03-18T00:34:05;10.60;92.80
19646;DHT22;9971;52.446;13.452;2023-03-18T00:39:07;10.60;93.00
19646;DHT22;9971;52.446;13.452;2023-03-18T00:44:10;10.50;92.70
19646;DHT22;9971;52.446;13.452;2023-03-18T00:49:12;10.50;92.80
19646;DHT22;9971;52.446;13.452;2023-03-18T00:54:13;10.50;92.70
19646;DHT22;9971;52.446;13.452;2023-03-18T00:59:15;10.40;92.60
19646;DHT22;9971;52.446;13.452;2023-03-18T01:04:17;10.40;92.70
19646;DHT22;9971;52.446;13.452;2023-03-18T01:09:20;10.40;92.70
19646;DHT22;9971;52.446;13.452;2023-03-18T01:14:22;10.30;92.80
19646;DHT22;9971;52.446;13.452;2023-03-18T01:19:24;10.30;92.90
19646;DHT22;9971;52.446;13.452;2023-03-18T01:24:26;10.20;92.90
19646;DHT22;9971;52.446;13.452;2023-03-18T01:29:28;10.20;92.90
19646;DHT22;9971;52.446;13.452;2023-03-18T01:34:31;10.20;93.10
19646;DHT22;9971;52.446;13.452;2023-03-18T01:39:33;10.20;93.20
19646;DHT22;9971;52.446;13.452;2023-03-18T01:44:35;10.10;93.20
19646;DHT22;9971;52.446;13.452;2023-03-18T01:49:40;10.10;93.40
19646;DHT22;9971;52.446;13.452;2023-03-18T01:54:46;10.10;93.30
19646;DHT22;9971;52.446;13.452;2023-03-18T01:59:47;10.20;93.30
19646;DHT22;9971;52.446;13.452;2023-03-18T02:04:50;10.10;93.20
19646;DHT22;9971;52.446;13.452;2023-03-18T02:09:51;10.10;93.20
19646;DHT22;9971;52.446;13.452;2023-03-18T02:14:53;10.10;93.30
19646;DHT22;9971;52.446;13.452;2023-03-18T02:20:34;10.20;93.00
19646;DHT22;9971;52.446;13.452;2023-03-18T02:30:53;10.20;92.90
19646;DHT22;9971;52.446;13.452;2023-03-18T02:35:55;10.20;92.80
19646;DHT22;9971;52.446;13.452;2023-03-18T02:40:57;10.30;92.90
19646;DHT22;9971;52.446;13.452;2023-03-18T02:46:20;10.30;92.80
19646;DHT22;9971;52.446;13.452;2023-03-18T02:51:21;10.20;92.90
19646;DHT22;9971;52.446;13.452;2023-03-18T02:56:24;10.20;93.00
19646;DHT22;9971;52.446;13.452;2023-03-18T03:01:26;10.20;93.00
19646;DHT22;9971;52.446;13.452;2023-03-18T03:06:28;10.30;93.00
19646;DHT22;9971;52.446;13.452;2023-03-18T03:11:30;10.20;92.90
19646;DHT22;9971;52.446;13.452;2023-03-18T03:16:33;10.20;93.00
19646;DHT22;9971;52.446;13.452;2023-03-18T03:21:35;10.20;93.30
19646;DHT22;9971;52.446;13.452;2023-03-18T03:26:38;10.20;93.20
19646;DHT22;9971;52.446;13.452;2023-03-18T03:31:40;10.20;93.10
19646;DHT22;9971;52.446;13.452;2023-03-18T03:36:43;10.10;93.10
19646;DHT22;9971;52.446;13.452;2023-03-18T03:41:45;10.10;93.30
19646;DHT22;9971;52.446;13.452;2023-03-18T03:46:48;10.10;93.70
19646;DHT22;9971;52.446;13.452;2023-03-18T03:51:50;10.00;93.70
19646;DHT22;9971;52.446;13.452;2023-03-18T03:56:52;10.00;93.80
19646;DHT22;9971;52.446;13.452;2023-03-18T04:01:55;10.00;94.00
19646;DHT22;9971;52.446;13.452;2023-03-18T04:06:57;10.00;94.20
19646;DHT22;9971;52.446;13.452;2023-03-18T04:12:00;10.00;94.10
19646;DHT22;9971;52.446;13.452;2023-03-18T04:17:02;10.00;94.10
19646;DHT22;9971;52.446;13.452;2023-03-18T04:22:04;9.90;94.20
19646;DHT22;9971;52.446;13.452;2023-03-18T04:27:06;9.90;94.20
19646;DHT22;9971;52.446;13.452;2023-03-18T04:32:09;9.90;94.20
19646;DHT22;9971;52.446;13.452;2023-03-18T04:37:11;9.90;94.50
19646;DHT22;9971;52.446;13.452;2023-03-18T04:42:13;9.80;95.00
19646;DHT22;9971;52.446;13.452;2023-03-18T04:47:15;9.80;94.80
19646;DHT22;9971;52.446;13.452;2023-03-18T04:52:17;9.80;94.90
19646;DHT22;9971;52.446;13.452;2023-03-18T04:57:20;9.70;95.10
19646;DHT22;9971;52.446;13.452;2023-03-18T05:02:25;9.60;95.30
19646;DHT22;9971;52.446;13.452;2023-03-18T05:07:28;9.60;95.60
19646;DHT22;9971;52.446;13.452;2023-03-18T05:12:30;9.60;95.60
19646;DHT22;9971;52.446;13.452;2023-03-18T05:17:32;9.50;95.80
19646;DHT22;9971;52.446;13.452;2023-03-18T05:22:35;9.40;95.80
19646;DHT22;9971;52.446;13.452;2023-03-18T05:27:37;9.40;96.10
19646;DHT22;9971;52.446;13.452;2023-03-18T05:32:39;9.40;96.30
19646;DHT22;9971;52.446;13.452;2023-03-18T05:37:41;9.30;96.60
19646;DHT22;9971;52.446;13.452;2023-03-18T05:42:43;9.20;96.80
19646;DHT22;9971;52.446;13.452;2023-03-18T05:47:46;9.20;96.80
19646;DHT22;9971;52.446;13.452;2023-03-18T05:52:48;9.20;97.30
19646;DHT22;9971;52.446;13.452;2023-03-18T05:57:51;9.30;97.10
19646;DHT22;9971;52.446;13.452;2023-03-18T06:02:53;9.20;97.00
19646;DHT22;9971;52.446;13.452;2023-03-18T06:07:55;9.30;97.10
19646;DHT22;9971;52.446;13.452;2023-03-18T06:12:57;9.30;97.10
19646;DHT22;9971;52.446;13.452;2023-03-18T06:17:59;9.30;97.10
19646;DHT22;9971;52.446;13.452;2023-03-18T06:23:02;9.40;97.00
19646;DHT22;9971;52.446;13.452;2023-03-18T06:28:04;9.30;97.10
19646;DHT22;9971;52.446;13.452;2023-03-18T06:33:06;9.40;97.10
19646;DHT22;9971;52.446;13.452;2023-03-18T06:38:09;9.40;97.10
19646;DHT22;9971;52.446;13.452;2023-03-18T06:43:11;9.40;97.30
19646;DHT22;9971;52.446;13.452;2023-03-18T06:48:13;9.40;97.40
19646;DHT22;9971;52.446;13.452;2023-03-18T06:53:16;9.50;97.50
19646;DHT22;9971;52.446;13.452;2023-03-18T06:58:18;9.40;97.70
19646;DHT22;9971;52.446;13.452;2023-03-18T07:03:20;9.50;97.80
19646;DHT22;9971;52.446;13.452;2023-03-18T07:08:22;9.50;98.00
19646;DHT22;9971;52.446;13.452;2023-03-18T07:13:25;9.50;98.00
19646;DHT22;9971;52.446;13.452;2023-03-18T07:18:27;9.60;98.10
19646;DHT22;9971;52.446;13.452;2023-03-18T07:23:29;9.70;98.20
19646;DHT22;9971;52.446;13.452;2023-03-18T07:28:32;9.90;98.20
19646;DHT22;9971;52.446;13.452;2023-03-18T07:33:34;10.00;98.20
19646;DHT22;9971;52.446;13.452;2023-03-18T07:38:37;10.00;98.40
19646;DHT22;9971;52.446;13.452;2023-03-18T07:43:39;10.10;98.50
19646;DHT22;9971;52.446;13.452;2023-03-18T07:48:41;10.20;98.50
19646;DHT22;9971;52.446;13.452;2023-03-18T07:53:44;10.30;98.70
19646;DHT22;9971;52.446;13.452;2023-03-18T07:58:46;10.40;99.00
19646;DHT22;9971;52.446;13.452;2023-03-18T08:03:49;10.50;99.30
19646;DHT22;9971;52.446;13.452;2023-03-18T08:08:51;10.70;99.20
19646;DHT22;9971;52.446;13.452;2023-03-18T08:13:53;10.90;98.90
19646;DHT22;9971;52.446;13.452;2023-03-18T08:18:56;11.00;98.90
19646;DHT22;9971;52.446;13.452;2023-03-18T08:23:58;11.20;98.50
19646;DHT22;9971;52.446;13.452;2023-03-18T08:29:00;11.40;98.60
19646;DHT22;9971;52.446;13.452;2023-03-18T08:34:03;11.60;98.50
19646;DHT22;9971;52.446;13.452;2023-03-18T08:39:05;11.70;98.40
19646;DHT22;9971;52.446;13.452;2023-03-18T08:44:07;11.90;98.20
19646;DHT22;9971;52.446;13.452;2023-03-18T08:49:09;12.10;98.30
19646;DHT22;9971;52.446;13.452;2023-03-18T08:54:11;12.30;98.30
19646;DHT22;9971;52.446;13.452;2023-03-18T08:59:14;12.50;98.00
19646;DHT22;9971;52.446;13.452;2023-03-18T09:04:16;12.80;98.10
19646;DHT22;9971;52.446;13.452;2023-03-18T09:09:19;13.10;98.00
19646;DHT22;9971;52.446;13.452;2023-03-18T09:14:21;13.20;97.70
19646;DHT22;9971;52.446;13.452;2023-03-18T09:19:24;13.30;97.80
19646;DHT22;9971;52.446;13.452;2023-03-18T09:24:26;13.50;97.90
19646;DHT22;9971;52.446;13.452;2023-03-18T09:29:28;13.70;97.50
19646;DHT22;9971;52.446;13.452;2023-03-18T09:34:31;13.90;97.20
19646;DHT22;9971;52.446;13.452;2023-03-18T09:39:33;14.00;97.20
19646;DHT22;9971;52.446;13.452;2023-03-18T09:44:36;14.10;97.00
19646;DHT22;9971;52.446;13.452;2023-03-18T09:49:59;14.40;96.80
19646;DHT22;9971;52.446;13.452;2023-03-18T09:55:02;14.50;96.70
19646;DHT22;9971;52.446;13.452;2023-03-18T10:00:05;14.80;96.80
19646;DHT22;9971;52.446;13.452;2023-03-18T10:05:11;15.00;96.40
19646;DHT22;9971;52.446;13.452;2023-03-18T10:10:30;15.40;96.10
19646;DHT22;9971;52.446;13.452;2023-03-18T10:20:59;15.90;95.50
19646;DHT22;9971;52.446;13.452;2023-03-18T10:26:02;16.30;95.50
19646;DHT22;9971;52.446;13.452;2023-03-18T10:31:09;16.50;94.50
19646;DHT22;9971;52.446;13.452;2023-03-18T10:36:15;16.80;95.00
19646;DHT22;9971;52.446;13.452;2023-03-18T10:41:15;17.10;94.20
19646;DHT22;9971;52.446;13.452;2023-03-18T10:46:17;17.20;94.10
19646;DHT22;9971;52.446;13.452;2023-03-18T10:56:39;17.70;94.10
19646;DHT22;9971;52.446;13.452;2023-03-18T11:01:47;18.00;93.50
19646;DHT22;9971;52.446;13.452;2023-03-18T11:06:51;18.00;93.70
19646;DHT22;9971;52.446;13.452;2023-03-18T11:11:56;18.30;93.70
19646;DHT22;9971;52.446;13.452;2023-03-18T11:16:59;18.50;93.00
19646;DHT22;9971;52.446;13.452;2023-03-18T11:27:24;19.00;92.90
19646;DHT22;9971;52.446;13.452;2023-03-18T11:32:28;19.00;93.10
19646;DHT22;9971;52.446;13.452;2023-03-18T11:37:35;18.80;92.70
19646;DHT22;9971;52.446;13.452;2023-03-18T11:42:36;18.60;93.40
19646;DHT22;9971;52.446;13.452;2023-03-18T11:47:38;18.40;93.80
19646;DHT22;9971;52.446;13.452;2023-03-18T11:52:45;18.20;94.70
19646;DHT22;9971;52.446;13.452;2023-03-18T11:57:58;18.20;95.10
19646;DHT22;9971;52.446;13.452;2023-03-18T12:03:02;18.30;95.20
19646;DHT22;9971;52.446;13.452;2023-03-18T12:08:11;18.10;95.30
19646;DHT22;9971;52.446;13.452;2023-03-18T12:23:59;18.90;95.60
19646;DHT22;9971;52.446;13.452;2023-03-18T12:34:28;19.30;95.70
19646;DHT22;9971;52.446;13.452;2023-03-18T12:39:55;19.60;95.70
19646;DHT22;9971;52.446;13.452;2023-03-18T12:44:59;19.90;95.40
19646;DHT22;9971;52.446;13.452;2023-03-18T12:50:05;19.90;94.50
19646;DHT22;9971;52.446;13.452;2023-03-18T12:55:29;20.00;94.60
19646;DHT22;9971;52.446;13.452;2023-03-18T13:00:33;20.20;94.60
19646;DHT22;9971;52.446;13.452;2023-03-18T13:05:42;20.30;94.10
19646;DHT22;9971;52.446;13.452;2023-03-18T13:10:43;20.20;94.20
19646;DHT22;9971;52.446;13.452;2023-03-18T13:15:50;20.60;93.80
19646;DHT22;9971;52.446;13.452;2023-03-18T13:20:53;20.90;94.20
19646;DHT22;9971;52.446;13.452;2023-03-18T13:26:05;20.90;93.90
19646;DHT22;9971;52.446;13.452;2023-03-18T13:31:19;20.80;93.80
19646;DHT22;9971;52.446;13.452;2023-03-18T13:41:39;21.40;93.40
19646;DHT22;9971;52.446;13.452;2023-03-18T13:46:38;21.60;93.30
19646;DHT22;9971;52.446;13.452;2023-03-18T13:51:47;21.70;92.50
19646;DHT22;9971;52.446;13.452;2023-03-18T13:56:48;22.00;92.80
19646;DHT22;9971;52.446;13.452;2023-03-18T14:01:48;22.00;92.40
19646;DHT22;9971;52.446;13.452;2023-03-18T14:06:51;21.90;92.40
19646;DHT22;9971;52.446;13.452;2023-03-18T14:11:52;21.90;92.50
19646;DHT22;9971;52.446;13.452;2023-03-18T14:16:55;22.20;92.40
19646;DHT22;9971;52.446;13.452;2023-03-18T14:22:05;22.00;92.40
19646;DHT22;9971;52.446;13.452;2023-03-18T14:27:12;21.90;92.80
19646;DHT22;9971;52.446;13.452;2023-03-18T14:32:35;22.00;93.60
19646;DHT22;9971;52.446;13.452;2023-03-18T14:37:36;22.20;92.70
19646;DHT22;9971;52.446;13.452;2023-03-18T14:42:42;22.20;92.50
19646;DHT22;9971;52.446;13.452;2023-03-18T14:47:43;22.10;93.10
19646;DHT22;9971;52.446;13.452;2023-03-18T14:52:46;21.60;93.50
19646;DHT22;9971;52.446;13.452;2023-03-18T14:57:47;21.30;94.40
19646;DHT22;9971;52.446;13.452;2023-03-18T15:02:56;21.40;94.20
19646;DHT22;9971;52.446;13.452;2023-03-18T15:07:55;21.40;94.30
19646;DHT22;9971;52.446;13.452;2023-03-18T15:13:02;21.10;94.70
19646;DHT22;9971;52.446;13.452;2023-03-18T15:18:19;21.10;94.70
19646;DHT22;9971;52.446;13.452;2023-03-18T15:23:20;21.10;95.10
19646;DHT22;9971;52.446;13.452;2023-03-18T15:28:23;21.50;94.50
19646;DHT22;9971;52.446;13.452;2023-03-18T15:33:32;21.50;94.40
19646;DHT22;9971;52.446;13.452;2023-03-18T15:38:30;21.40;94.60
19646;DHT22;9971;52.446;13.452;2023-03-18T15:43:45;21.30;94.40
19646;DHT22;9971;52.446;13.452;2023-03-18T15:48:47;21.10;94.50
19646;DHT22;9971;52.446;13.452;2023-03-18T15:53:50;20.60;95.30
19646;DHT22;9971;52.446;13.452;2023-03-18T15:59:01;20.20;96.00
19646;DHT22;9971;52.446;13.452;2023-03-18T16:04:00;19.90;96.60
19646;DHT22;9971;52.446;13.452;2023-03-18T16:09:10;19.70;97.50
19646;DHT22;9971;52.446;13.452;2023-03-18T16:14:03;19.50;97.90
19646;DHT22;9971;52.446;13.452;2023-03-18T16:19:12;19.40;98.30
19646;DHT22;9971;52.446;13.452;2023-03-18T16:24:07;19.30;98.70
19646;DHT22;9971;52.446;13.452;2023-03-18T16:29:13;19.30;99.10
19646;DHT22;9971;52.446;13.452;2023-03-18T16:34:16;19.10;99.50
19646;DHT22;9971;52.446;13.452;2023-03-18T16:39:18;19.00;99.80
19646;DHT22;9971;52.446;13.452;2023-03-18T16:44:20;18.80;99.90
19646;DHT22;9971;52.446;13.452;2023-03-18T16:49:25;18.60;99.90
19646;DHT22;9971;52.446;13.452;2023-03-18T16:54:27;18.40;99.90
19646;DHT22;9971;52.446;13.452;2023-03-18T16:59:30;18.20;99.90
19646;DHT22;9971;52.446;13.452;2023-03-18T17:04:31;18.00;99.90
19646;DHT22;9971;52.446;13.452;2023-03-18T17:09:33;17.80;99.90
19646;DHT22;9971;52.446;13.452;2023-03-18T17:14:37;17.60;99.90
19646;DHT22;9971;52.446;13.452;2023-03-18T17:19:39;17.40;99.90
19646;DHT22;9971;52.446;13.452;2023-03-18T17:24:41;17.30;99.90
19646;DHT22;9971;52.446;13.452;2023-03-18T17:29:43;17.10;99.90
19646;DHT22;9971;52.446;13.452;2023-03-18T17:34:46;17.00;99.90
19646;DHT22;9971;52.446;13.452;2023-03-18T17:39:49;16.80;99.90
19646;DHT22;9971;52.446;13.452;2023-03-18T17:44:50;16.80;99.90
19646;DHT22;9971;52.446;13.452;2023-03-18T18:14:54;16.60;99.90
19646;DHT22;9971;52.446;13.452;2023-03-18T18:19:56;17.40;99.90
19646;DHT22;9971;52.446;13.452;2023-03-18T18:24:59;16.50;99.90
19646;DHT22;9971;52.446;13.452;2023-03-18T18:30:01;16.00;99.90
19646;DHT22;9971;52.446;13.452;2023-03-18T18:35:04;15.70;99.90
19646;DHT22;9971;52.446;13.452;2023-03-18T18:40:07;15.40;99.90
19646;DHT22;9971;52.446;13.452;2023-03-18T18:45:15;15.30;99.90
19646;DHT22;9971;52.446;13.452;2023-03-18T18:50:15;15.10;99.90
19646;DHT22;9971;52.446;13.452;2023-03-18T18:55:16;15.00;99.90
19646;DHT22;9971;52.446;13.452;2023-03-18T19:00:20;14.90;99.90
19646;DHT22;9971;52.446;13.452;2023-03-18T19:05:21;14.70;99.90
19646;DHT22;9971;52.446;13.452;2023-03-18T19:10:23;14.60;99.90
19646;DHT22;9971;52.446;13.452;2023-03-18T19:15:26;14.40;99.90
19646;DHT22;9971;52.446;13.452;2023-03-18T19:20:28;14.20;99.90
19646;DHT22;9971;52.446;13.452;2023-03-18T19:25:30;14.10;99.90
19646;DHT22;9971;52.446;13.452;2023-03-18T19:55:33;14.00;99.90
19646;DHT22;9971;52.446;13.452;2023-03-18T20:00:36;15.60;99.90
19646;DHT22;9971;52.446;13.452;2023-03-18T20:05:38;15.10;99.90
19646;DHT22;9971;52.446;13.452;2023-03-18T20:10:40;14.80;99.90
19646;DHT22;9971;52.446;13.452;2023-03-18T20:15:43;14.70;99.90
19646;DHT22;9971;52.446;13.452;2023-03-18T20:20:47;14.50;99.90
19646;DHT22;9971;52.446;13.452;2023-03-18T20:25:48;14.50;99.90
19646;DHT22;9971;52.446;13.452;2023-03-18T20:30:50;14.40;99.90
19646;DHT22;9971;52.446;13.452;2023-03-18T20:35:52;14.40;99.90
19646;DHT22;9971;52.446;13.452;2023-03-18T20:40:54;14.30;99.90
19646;DHT22;9971;52.446;13.452;2023-03-18T20:45:56;14.20;99.90
19646;DHT22;9971;52.446;13.452;2023-03-18T20:50:58;14.10;99.90
19646;DHT22;9971;52.446;13.452;2023-03-18T20:56:00;14.10;99.90
19646;DHT22;9971;52.446;13.452;2023-03-18T21:01:03;14.00;99.90
19646;DHT22;9971;52.446;13.452;2023-03-18T21:06:05;13.90;99.90
19646;DHT22;9971;52.446;13.452;2023-03-18T21:11:15;13.90;99.90
19646;DHT22;9971;52.446;13.452;2023-03-18T21:16:13;13.80;99.90
19646;DHT22;9971;52.446;13.452;2023-03-18T21:21:19;13.80;99.90
19646;DHT22;9971;52.446;13.452;2023-03-18T21:26:20;13.70;99.90
19646;DHT22;9971;52.446;13.452;2023-03-18T21:31:25;13.60;99.90
19646;DHT22;9971;52.446;13.452;2023-03-18T22:01:26;13.50;99.90
19646;DHT22;9971;52.446;13.452;2023-03-18T22:06:28;15.10;99.90
19646;DHT22;9971;52.446;13.452;2023-03-18T22:11:30;13.90;99.90
19646;DHT22;9971;52.446;13.452;2023-03-18T22:16:33;13.20;99.90
19646;DHT22;9971;52.446;13.452;2023-03-18T22:21:35;12.90;99.90
19646;DHT22;9971;52.446;13.452;2023-03-18T22:26:38;12.70;99.90
19646;DHT22;9971;52.446;13.452;2023-03-18T22:31:40;12.50;99.90
19646;DHT22;9971;52.446;13.452;2023-03-18T22:36:42;12.40;99.90
19646;DHT22;9971;52.446;13.452;2023-03-18T22:41:45;12.30;99.90
19646;DHT22;9971;52.446;13.452;2023-03-18T22:46:47;12.20;99.90
19646;DHT22;9971;52.446;13.452;2023-03-18T22:51:50;12.00;99.90
19646;DHT22;9971;52.446;13.452;2023-03-18T23:21:53;11.80;99.90
19646;DHT22;9971;52.446;13.452;2023-03-18T23:26:55;13.90;99.90
19646;DHT22;9971;52.446;13.452;2023-03-18T23:31:57;12.50;99.90
